createdAt,value
2016-11-19T00:00:01.493Z,7.37
2016-11-19T00:01:01.443Z,7.37
2016-11-19T00:02:01.409Z,7.43
2016-11-19T00:03:01.369Z,7.31
2016-11-19T00:04:01.028Z,7.43
2016-11-19T00:05:01.288Z,7.34
2016-11-19T00:06:00.949Z,7.35
2016-11-19T00:07:00.907Z,7.39
2016-11-19T00:08:01.171Z,7.32
2016-11-19T00:09:01.134Z,7.39
2016-11-19T00:10:00.793Z,7.31
2016-11-19T00:11:01.063Z,7.35
2016-11-19T00:12:01.017Z,7.43
2016-11-19T00:13:00.980Z,7.37
2016-11-19T00:14:00.934Z,7.39
2016-11-19T00:15:00.895Z,7.34
2016-11-19T00:16:00.856Z,7.35
2016-11-19T00:17:00.825Z,7.42
2016-11-19T00:18:00.784Z,7.37
2016-11-19T00:19:00.737Z,7.21
2016-11-19T00:20:00.700Z,7.37
2016-11-19T00:21:00.663Z,7.3
2016-11-19T00:22:00.621Z,7.39
2016-11-19T00:23:00.581Z,7.32
2016-11-19T00:24:00.237Z,7.28
2016-11-19T00:25:00.198Z,7.35
2016-11-19T00:26:00.464Z,7.37
2016-11-19T00:27:00.120Z,7.31
2016-11-19T00:28:00.115Z,7.39
2016-11-19T00:28:59.748Z,7.32
2016-11-19T00:30:00.305Z,7.28
2016-11-19T00:31:00.268Z,7.39
2016-11-19T00:32:00.228Z,7.32
2016-11-19T00:32:59.888Z,7.3
2016-11-19T00:34:00.147Z,7.34
2016-11-19T00:35:00.122Z,7.39
2016-11-19T00:36:00.073Z,7.32
2016-11-19T00:37:00.033Z,7.28
2016-11-19T00:37:59.993Z,7.31
2016-11-19T00:38:59.954Z,7.3
2016-11-19T00:39:59.616Z,7.3
2016-11-19T00:40:59.909Z,7.24
2016-11-19T00:41:59.838Z,7.31
2016-11-19T00:42:59.802Z,7.25
2016-11-19T00:43:59.458Z,7.25
2016-11-19T00:44:59.720Z,7.16
2016-11-19T00:45:59.690Z,7.25
2016-11-19T00:46:59.335Z,7.2
2016-11-19T00:47:59.304Z,7.2
2016-11-19T00:48:59.563Z,7.2
2016-11-19T00:49:59.222Z,7.21
2016-11-19T00:50:59.183Z,7.16
2016-11-19T00:51:59.450Z,7.23
2016-11-19T00:52:59.408Z,7.21
2016-11-19T00:53:59.364Z,7.16
2016-11-19T00:54:59.328Z,7.16
2016-11-19T00:55:59.287Z,7.17
2016-11-19T00:56:59.278Z,7.21
2016-11-19T00:57:59.207Z,7.25
2016-11-19T00:58:58.870Z,7.2
2016-11-19T00:59:59.137Z,7.23
2016-11-19T01:00:59.093Z,7.24
2016-11-19T01:01:58.753Z,7.16
2016-11-19T01:02:59.014Z,7.17
2016-11-19T01:03:58.969Z,7.2
2016-11-19T01:04:58.937Z,7.15
2016-11-19T01:05:58.924Z,7.3
2016-11-19T01:06:58.550Z,7.23
2016-11-19T01:07:58.819Z,7.23
2016-11-19T01:08:58.779Z,7.23
2016-11-19T01:09:58.747Z,7.21
2016-11-19T01:10:58.695Z,7.24
2016-11-19T01:11:58.660Z,7.17
2016-11-19T01:12:58.621Z,7.23
2016-11-19T01:13:58.583Z,7.17
2016-11-19T01:14:58.540Z,7.15
2016-11-19T01:15:58.498Z,7.17
2016-11-19T01:16:58.462Z,7.17
2016-11-19T01:17:58.423Z,7.24
2016-11-19T01:18:58.082Z,7.2
2016-11-19T01:19:58.342Z,7.16
2016-11-19T01:20:57.999Z,7.16
2016-11-19T01:21:58.401Z,7.12
2016-11-19T01:22:57.923Z,7.09
2016-11-19T01:23:58.191Z,7.1
2016-11-19T01:24:58.150Z,7.15
2016-11-19T01:25:57.802Z,7.13
2016-11-19T01:26:57.765Z,7.16
2016-11-19T01:27:58.030Z,7.2
2016-11-19T01:28:57.689Z,7.2
2016-11-19T01:29:57.951Z,7.23
2016-11-19T01:30:57.356Z,7.21
2016-11-19T01:31:57.569Z,7.2
2016-11-19T01:32:57.861Z,7.24
2016-11-19T01:33:57.791Z,7.23
2016-11-19T01:34:57.755Z,7.23
2016-11-19T01:35:57.717Z,7.2
2016-11-19T01:36:57.373Z,7.24
2016-11-19T01:37:57.330Z,7.15
2016-11-19T01:38:57.600Z,7.23
2016-11-19T01:39:56.952Z,7.1
2016-11-19T01:40:57.518Z,7.1
2016-11-19T01:41:57.477Z,7.13
2016-11-19T01:42:57.440Z,7.07
2016-11-19T01:43:57.101Z,6.95
2016-11-19T01:44:57.364Z,7.05
2016-11-19T01:45:57.017Z,7.05
2016-11-19T01:46:56.976Z,6.99
2016-11-19T01:47:57.237Z,6.98
2016-11-19T01:48:57.203Z,6.94
2016-11-19T01:49:57.158Z,6.85
2016-11-19T01:50:57.123Z,6.85
2016-11-19T01:51:57.081Z,6.81
2016-11-19T01:52:57.041Z,6.87
2016-11-19T01:53:57.001Z,6.8
2016-11-19T01:54:56.962Z,6.84
2016-11-19T01:55:56.929Z,6.74
2016-11-19T01:56:56.580Z,6.8
2016-11-19T01:57:56.844Z,6.69
2016-11-19T01:58:56.811Z,6.76
2016-11-19T01:59:56.463Z,6.79
2016-11-19T02:00:56.427Z,6.76
2016-11-19T02:01:56.685Z,6.77
2016-11-19T02:02:56.655Z,6.73
2016-11-19T02:03:56.602Z,6.74
2016-11-19T02:04:56.566Z,6.7
2016-11-19T02:05:56.525Z,6.69
2016-11-19T02:06:56.484Z,6.73
2016-11-19T02:07:56.446Z,6.76
2016-11-19T02:08:56.440Z,6.71
2016-11-19T02:09:56.368Z,6.71
2016-11-19T02:10:56.327Z,6.69
2016-11-19T02:11:56.285Z,6.7
2016-11-19T02:12:55.943Z,6.62
2016-11-19T02:13:56.211Z,6.59
2016-11-19T02:14:56.170Z,6.66
2016-11-19T02:15:56.127Z,6.64
2016-11-19T02:16:56.087Z,6.62
2016-11-19T02:17:56.071Z,6.59
2016-11-19T02:18:55.705Z,6.64
2016-11-19T02:19:55.666Z,6.56
2016-11-19T02:20:55.931Z,6.62
2016-11-19T02:21:55.629Z,6.59
2016-11-19T02:22:55.552Z,6.61
2016-11-19T02:23:55.510Z,6.7
2016-11-19T02:24:55.779Z,6.61
2016-11-19T02:25:55.731Z,6.62
2016-11-19T02:26:55.388Z,6.61
2016-11-19T02:27:55.671Z,6.64
2016-11-19T02:28:55.617Z,6.62
2016-11-19T02:29:55.571Z,6.62
2016-11-19T02:30:55.525Z,6.73
2016-11-19T02:31:55.493Z,6.71
2016-11-19T02:32:55.450Z,6.69
2016-11-19T02:33:55.406Z,6.69
2016-11-19T02:34:55.373Z,6.73
2016-11-19T02:35:55.332Z,6.71
2016-11-19T02:36:55.294Z,6.71
2016-11-19T02:37:55.261Z,6.7
2016-11-19T02:38:54.908Z,6.74
2016-11-19T02:39:55.172Z,6.7
2016-11-19T02:40:54.834Z,6.67
2016-11-19T02:41:55.086Z,6.73
2016-11-19T02:42:54.751Z,6.74
2016-11-19T02:43:55.019Z,6.69
2016-11-19T02:44:54.985Z,6.73
2016-11-19T02:45:54.938Z,6.76
2016-11-19T02:46:54.590Z,6.69
2016-11-19T02:47:54.850Z,6.74
2016-11-19T02:48:54.812Z,6.67
2016-11-19T02:49:54.771Z,6.73
2016-11-19T02:50:54.744Z,6.73
2016-11-19T02:51:54.696Z,6.71
2016-11-19T02:52:54.347Z,6.73
2016-11-19T02:53:54.616Z,6.73
2016-11-19T02:54:54.570Z,6.79
2016-11-19T02:55:54.530Z,6.79
2016-11-19T02:56:54.490Z,6.77
2016-11-19T02:57:54.453Z,6.73
2016-11-19T02:58:54.447Z,6.76
2016-11-19T02:59:54.377Z,6.71
2016-11-19T03:00:54.346Z,6.74
2016-11-19T03:01:54.293Z,6.77
2016-11-19T03:02:53.955Z,6.71
2016-11-19T03:03:53.921Z,6.79
2016-11-19T03:04:54.174Z,6.79
2016-11-19T03:05:54.137Z,6.74
2016-11-19T03:06:54.098Z,6.74
2016-11-19T03:07:54.053Z,6.79
2016-11-19T03:08:54.017Z,6.73
2016-11-19T03:09:53.985Z,6.77
2016-11-19T03:10:53.975Z,6.73
2016-11-19T03:11:53.596Z,6.79
2016-11-19T03:12:53.861Z,6.73
2016-11-19T03:13:53.816Z,6.77
2016-11-19T03:14:53.777Z,6.7
2016-11-19T03:15:53.735Z,6.67
2016-11-19T03:16:53.716Z,6.7
2016-11-19T03:17:53.673Z,6.69
2016-11-19T03:18:53.614Z,6.67
2016-11-19T03:19:53.580Z,6.71
2016-11-19T03:20:53.533Z,6.73
2016-11-19T03:21:53.502Z,6.66
2016-11-19T03:22:53.460Z,6.7
2016-11-19T03:23:53.417Z,6.7
2016-11-19T03:24:53.380Z,6.7
2016-11-19T03:25:53.337Z,6.58
2016-11-19T03:26:53.302Z,6.58
2016-11-19T03:27:53.257Z,6.58
2016-11-19T03:28:53.221Z,6.54
2016-11-19T03:29:52.878Z,6.55
2016-11-19T03:30:53.138Z,6.52
2016-11-19T03:31:52.799Z,6.41
2016-11-19T03:32:53.060Z,6.49
2016-11-19T03:33:53.020Z,6.51
2016-11-19T03:34:52.985Z,6.46
2016-11-19T03:35:52.943Z,6.49
2016-11-19T03:36:52.636Z,6.44
2016-11-19T03:37:52.860Z,6.38
2016-11-19T03:38:52.822Z,6.4
2016-11-19T03:39:52.778Z,6.44
2016-11-19T03:40:52.746Z,6.43
2016-11-19T03:41:52.401Z,6.38
2016-11-19T03:42:52.660Z,6.44
2016-11-19T03:43:52.621Z,6.41
2016-11-19T03:44:52.282Z,6.37
2016-11-19T03:45:52.541Z,6.4
2016-11-19T03:46:52.499Z,6.44
2016-11-19T03:47:52.490Z,6.46
2016-11-19T03:48:52.417Z,6.46
2016-11-19T03:49:52.078Z,6.38
2016-11-19T03:50:52.340Z,6.48
2016-11-19T03:51:52.298Z,6.52
2016-11-19T03:52:52.300Z,6.43
2016-11-19T03:53:52.222Z,6.54
2016-11-19T03:54:51.876Z,6.46
2016-11-19T03:55:52.141Z,6.51
2016-11-19T03:56:52.099Z,6.48
2016-11-19T03:57:52.060Z,6.49
2016-11-19T03:58:51.718Z,6.4
2016-11-19T03:59:51.979Z,6.46
2016-11-19T04:00:51.640Z,6.49
2016-11-19T04:01:51.894Z,6.43
2016-11-19T04:02:51.865Z,6.44
2016-11-19T04:03:51.819Z,6.4
2016-11-19T04:04:51.789Z,6.43
2016-11-19T04:05:51.737Z,6.41
2016-11-19T04:06:51.405Z,6.43
2016-11-19T04:07:51.683Z,6.43
2016-11-19T04:08:51.616Z,6.46
2016-11-19T04:09:51.578Z,6.43
2016-11-19T04:10:51.552Z,6.48
2016-11-19T04:11:51.194Z,6.37
2016-11-19T04:12:51.456Z,6.41
2016-11-19T04:13:50.813Z,6.38
2016-11-19T04:14:51.379Z,6.36
2016-11-19T04:15:51.035Z,6.43
2016-11-19T04:16:51.296Z,6.44
2016-11-19T04:17:50.648Z,6.44
2016-11-19T04:18:51.216Z,6.41
2016-11-19T04:19:50.875Z,6.4
2016-11-19T04:20:51.137Z,6.33
2016-11-19T04:21:51.130Z,6.37
2016-11-19T04:22:51.056Z,6.4
2016-11-19T04:23:51.015Z,6.27
2016-11-19T04:24:50.975Z,6.31
2016-11-19T04:25:50.938Z,6.22
2016-11-19T04:26:50.593Z,6.37
2016-11-19T04:27:50.554Z,6.37
2016-11-19T04:28:50.814Z,6.34
2016-11-19T04:29:50.469Z,6.37
2016-11-19T04:30:50.431Z,6.36
2016-11-19T04:31:50.389Z,6.34
2016-11-19T04:32:50.656Z,6.36
2016-11-19T04:33:50.611Z,6.34
2016-11-19T04:34:50.571Z,6.28
2016-11-19T04:35:50.532Z,6.37
2016-11-19T04:36:50.492Z,6.36
2016-11-19T04:37:50.454Z,6.37
2016-11-19T04:38:50.414Z,6.43
2016-11-19T04:39:50.373Z,6.37
2016-11-19T04:40:50.332Z,6.43
2016-11-19T04:41:49.998Z,6.43
2016-11-19T04:42:50.252Z,6.38
2016-11-19T04:43:50.215Z,6.34
2016-11-19T04:44:50.170Z,6.4
2016-11-19T04:45:50.129Z,6.37
2016-11-19T04:46:50.086Z,6.46
2016-11-19T04:47:50.051Z,6.43
2016-11-19T04:48:50.016Z,6.44
2016-11-19T04:49:49.967Z,6.43
2016-11-19T04:50:49.931Z,6.46
2016-11-19T04:51:49.894Z,6.4
2016-11-19T04:52:49.857Z,6.43
2016-11-19T04:53:49.812Z,6.44
2016-11-19T04:54:49.769Z,6.44
2016-11-19T04:55:49.730Z,6.44
2016-11-19T04:56:49.388Z,6.4
2016-11-19T04:57:49.647Z,6.41
2016-11-19T04:58:49.608Z,6.36
2016-11-19T04:59:49.566Z,6.44
2016-11-19T05:00:49.224Z,6.38
2016-11-19T05:01:49.486Z,6.37
2016-11-19T05:02:49.145Z,6.37
2016-11-19T05:03:49.435Z,6.36
2016-11-19T05:04:49.067Z,6.37
2016-11-19T05:05:49.327Z,6.31
2016-11-19T05:06:49.286Z,6.41
2016-11-19T05:07:49.246Z,6.36
2016-11-19T05:08:49.205Z,6.25
2016-11-19T05:09:48.867Z,6.3
2016-11-19T05:10:48.823Z,6.21
2016-11-19T05:11:49.086Z,6.17
2016-11-19T05:12:48.435Z,6.18
2016-11-19T05:13:49.004Z,6.31
2016-11-19T05:14:48.963Z,6.27
2016-11-19T05:15:48.924Z,6.28
2016-11-19T05:16:48.581Z,6.25
2016-11-19T05:17:48.843Z,6.27
2016-11-19T05:18:48.803Z,6.28
2016-11-19T05:19:48.791Z,6.22
2016-11-19T05:20:48.722Z,6.19
2016-11-19T05:21:48.683Z,6.25
2016-11-19T05:22:48.640Z,6.19
2016-11-19T05:23:48.603Z,6.21
2016-11-19T05:24:48.561Z,6.27
2016-11-19T05:25:48.557Z,6.25
2016-11-19T05:26:48.182Z,6.3
2016-11-19T05:27:48.436Z,6.27
2016-11-19T05:28:48.400Z,6.25
2016-11-19T05:29:48.363Z,6.19
2016-11-19T05:30:48.325Z,6.25
2016-11-19T05:31:47.981Z,6.25
2016-11-19T05:32:48.240Z,6.22
2016-11-19T05:33:48.199Z,6.22
2016-11-19T05:34:47.855Z,6.21
2016-11-19T05:35:48.121Z,6.21
2016-11-19T05:36:48.074Z,6.3
2016-11-19T05:37:47.734Z,6.28
2016-11-19T05:38:48.000Z,6.34
2016-11-19T05:39:47.960Z,6.34
2016-11-19T05:40:47.313Z,6.36
2016-11-19T05:41:47.871Z,6.33
2016-11-19T05:42:47.536Z,6.34
2016-11-19T05:43:47.488Z,6.37
2016-11-19T05:44:47.455Z,6.31
2016-11-19T05:45:47.418Z,6.31
2016-11-19T05:46:47.670Z,6.34
2016-11-19T05:47:47.327Z,6.34
2016-11-19T05:48:47.589Z,6.43
2016-11-19T05:49:47.551Z,6.37
2016-11-19T05:50:47.212Z,6.37
2016-11-19T05:51:47.474Z,6.44
2016-11-19T05:52:47.432Z,6.44
2016-11-19T05:53:47.090Z,6.44
2016-11-19T05:54:47.347Z,6.44
2016-11-19T05:55:47.011Z,6.38
2016-11-19T05:56:47.269Z,6.4
2016-11-19T05:57:47.228Z,6.4
2016-11-19T05:58:47.192Z,6.43
2016-11-19T05:59:46.843Z,6.46
2016-11-19T06:00:47.111Z,6.4
2016-11-19T06:01:47.072Z,6.4
2016-11-19T06:02:47.027Z,6.54
2016-11-19T06:03:46.988Z,6.49
2016-11-19T06:04:46.948Z,6.43
2016-11-19T06:05:46.912Z,6.46
2016-11-19T06:06:46.870Z,6.44
2016-11-19T06:07:46.829Z,6.55
2016-11-19T06:08:46.484Z,6.46
2016-11-19T06:09:46.745Z,6.44
2016-11-19T06:10:46.730Z,6.54
2016-11-19T06:11:46.665Z,6.55
2016-11-19T06:12:46.639Z,6.55
2016-11-19T06:13:46.283Z,6.58
2016-11-19T06:14:46.547Z,6.61
2016-11-19T06:15:46.505Z,6.58
2016-11-19T06:16:46.465Z,6.59
2016-11-19T06:17:46.426Z,6.58
2016-11-19T06:18:46.381Z,6.55
2016-11-19T06:19:46.341Z,6.55
2016-11-19T06:20:46.301Z,6.58
2016-11-19T06:21:46.262Z,6.58
2016-11-19T06:22:46.220Z,6.58
2016-11-19T06:23:46.181Z,6.55
2016-11-19T06:24:46.142Z,6.58
2016-11-19T06:25:45.799Z,6.55
2016-11-19T06:26:46.061Z,6.49
2016-11-19T06:27:46.025Z,6.51
2016-11-19T06:28:45.681Z,6.55
2016-11-19T06:29:45.639Z,6.51
2016-11-19T06:30:45.900Z,6.55
2016-11-19T06:31:45.862Z,6.49
2016-11-19T06:32:45.820Z,6.51
2016-11-19T06:33:45.778Z,6.52
2016-11-19T06:34:45.437Z,6.55
2016-11-19T06:35:45.697Z,6.51
2016-11-19T06:36:45.359Z,6.62
2016-11-19T06:37:45.321Z,6.54
2016-11-19T06:38:45.581Z,6.62
2016-11-19T06:39:45.234Z,6.61
2016-11-19T06:40:45.501Z,6.59
2016-11-19T06:41:45.459Z,6.54
2016-11-19T06:42:45.417Z,6.56
2016-11-19T06:43:45.382Z,6.59
2016-11-19T06:44:45.039Z,6.66
2016-11-19T06:45:45.300Z,6.62
2016-11-19T06:46:45.257Z,6.7
2016-11-19T06:47:45.216Z,6.71
2016-11-19T06:48:44.881Z,6.66
2016-11-19T06:49:45.133Z,6.69
2016-11-19T06:50:45.097Z,6.71
2016-11-19T06:51:45.075Z,6.73
2016-11-19T06:52:44.714Z,6.71
2016-11-19T06:53:44.979Z,6.69
2016-11-19T06:54:44.633Z,6.7
2016-11-19T06:55:44.900Z,6.73
2016-11-19T06:56:44.556Z,6.7
2016-11-19T06:57:44.813Z,6.7
2016-11-19T06:58:44.779Z,6.73
2016-11-19T06:59:44.733Z,6.7
2016-11-19T07:00:44.693Z,6.71
2016-11-19T07:01:44.658Z,6.69
2016-11-19T07:02:44.616Z,6.7
2016-11-19T07:03:44.579Z,6.7
2016-11-19T07:04:44.534Z,6.66
2016-11-19T07:05:44.506Z,6.67
2016-11-19T07:06:46.095Z,6.69
2016-11-19T07:07:44.920Z,6.73
2016-11-19T07:08:44.601Z,6.71
2016-11-19T07:09:44.951Z,6.62
2016-11-19T07:10:45.594Z,6.69
2016-11-19T07:11:44.687Z,6.7
2016-11-19T07:12:44.790Z,6.66
2016-11-19T07:13:44.259Z,6.67
2016-11-19T07:14:45.399Z,6.56
2016-11-19T07:15:44.821Z,6.66
2016-11-19T07:16:44.406Z,6.52
2016-11-19T07:17:44.680Z,6.56
2016-11-19T07:18:45.204Z,6.55
2016-11-19T07:19:44.272Z,6.55
2016-11-19T07:20:45.598Z,6.52
2016-11-19T07:21:44.925Z,6.56
2016-11-19T07:22:44.258Z,6.51
2016-11-19T07:23:44.422Z,6.54
2016-11-19T07:24:45.212Z,6.55
2016-11-19T07:25:44.443Z,6.51
2016-11-19T07:26:44.414Z,6.52
2016-11-19T07:27:45.104Z,6.51
2016-11-19T07:28:45.083Z,6.56
2016-11-19T07:29:43.539Z,6.56
2016-11-19T07:30:43.183Z,6.51
2016-11-19T07:31:43.488Z,6.54
2016-11-19T07:32:44.254Z,6.51
2016-11-19T07:33:44.487Z,6.55
2016-11-19T07:34:44.188Z,6.51
2016-11-19T07:35:44.677Z,6.59
2016-11-19T07:36:44.416Z,6.54
2016-11-19T07:37:43.207Z,6.49
2016-11-19T07:38:43.169Z,6.56
2016-11-19T07:39:43.127Z,6.54
2016-11-19T07:40:42.786Z,6.56
2016-11-19T07:41:43.047Z,6.64
2016-11-19T07:42:43.012Z,6.56
2016-11-19T07:43:42.969Z,6.59
2016-11-19T07:44:42.928Z,6.66
2016-11-19T07:45:42.887Z,6.59
2016-11-19T07:46:43.861Z,6.64
2016-11-19T07:47:42.506Z,6.71
2016-11-19T07:48:43.315Z,6.62
2016-11-19T07:49:43.889Z,6.7
2016-11-19T07:50:43.684Z,6.73
2016-11-19T07:51:43.495Z,6.7
2016-11-19T07:52:43.478Z,6.71
2016-11-19T07:53:43.443Z,6.7
2016-11-19T07:54:43.563Z,6.76
2016-11-19T07:55:43.688Z,6.71
2016-11-19T07:56:43.575Z,6.71
2016-11-19T07:57:43.231Z,6.7
2016-11-19T07:58:42.879Z,6.77
2016-11-19T07:59:43.965Z,6.73
2016-11-19T08:00:43.531Z,6.74
2016-11-19T08:01:43.340Z,6.73
2016-11-19T08:02:43.225Z,6.77
2016-11-19T08:03:43.506Z,6.76
2016-11-19T08:04:42.124Z,6.77
2016-11-19T08:05:42.083Z,6.76
2016-11-19T08:06:42.049Z,6.74
2016-11-19T08:07:42.003Z,6.77
2016-11-19T08:08:41.970Z,6.7
2016-11-19T08:09:41.620Z,6.79
2016-11-19T08:10:41.888Z,6.79
2016-11-19T08:11:41.841Z,6.8
2016-11-19T08:12:41.505Z,6.79
2016-11-19T08:13:41.159Z,6.8
2016-11-19T08:14:41.454Z,6.84
2016-11-19T08:15:41.688Z,6.89
2016-11-19T08:16:41.644Z,6.77
2016-11-19T08:17:41.604Z,6.85
2016-11-19T08:18:41.563Z,6.85
2016-11-19T08:19:41.525Z,6.81
2016-11-19T08:20:41.183Z,6.77
2016-11-19T08:21:41.456Z,6.85
2016-11-19T08:22:41.408Z,6.89
2016-11-19T08:23:41.359Z,6.87
2016-11-19T08:24:41.323Z,6.85
2016-11-19T08:25:41.286Z,6.94
2016-11-19T08:26:41.244Z,6.87
2016-11-19T08:27:40.910Z,6.95
2016-11-19T08:28:41.205Z,6.95
2016-11-19T08:29:41.130Z,6.99
2016-11-19T08:30:41.085Z,7.07
2016-11-19T08:31:41.045Z,7.07
2016-11-19T08:32:41.010Z,7.15
2016-11-19T08:33:40.968Z,6.98
2016-11-19T08:34:40.926Z,7.06
2016-11-19T08:35:40.886Z,7.15
2016-11-19T08:36:40.543Z,7.07
2016-11-19T08:37:40.813Z,7.15
2016-11-19T08:38:41.990Z,7.13
2016-11-19T08:39:40.424Z,7.2
2016-11-19T08:40:41.590Z,7.17
2016-11-19T08:41:41.263Z,7.25
2016-11-19T08:42:40.688Z,7.24
2016-11-19T08:43:41.572Z,7.21
2016-11-19T08:44:40.846Z,7.24
2016-11-19T08:45:41.393Z,7.17
2016-11-19T08:46:40.457Z,7.24
2016-11-19T08:47:39.910Z,7.25
2016-11-19T08:48:40.937Z,7.28
2016-11-19T08:49:40.600Z,7.23
2016-11-19T08:50:40.175Z,7.31
2016-11-19T08:52:40.526Z,7.28
2016-11-19T08:53:40.492Z,7.32
2016-11-19T08:54:40.955Z,7.37
2016-11-19T08:55:40.513Z,7.3
2016-11-19T08:56:40.262Z,7.28
2016-11-19T08:57:39.712Z,7.34
2016-11-19T08:58:39.706Z,7.3
2016-11-19T08:59:39.640Z,7.25
2016-11-19T09:00:39.931Z,7.37
2016-11-19T09:01:39.854Z,7.28
2016-11-19T09:02:39.515Z,7.35
2016-11-19T09:03:39.789Z,7.3
2016-11-19T09:04:39.736Z,7.25
2016-11-19T09:05:39.395Z,7.3
2016-11-19T09:06:39.657Z,7.34
2016-11-19T09:07:39.621Z,7.37
2016-11-19T09:08:39.578Z,7.37
2016-11-19T09:09:39.538Z,7.37
2016-11-19T09:10:39.498Z,7.4
2016-11-19T09:11:39.463Z,7.37
2016-11-19T09:12:39.420Z,7.37
2016-11-19T09:13:39.381Z,7.39
2016-11-19T09:14:39.042Z,7.37
2016-11-19T09:15:39.303Z,7.34
2016-11-19T09:16:39.269Z,7.34
2016-11-19T09:17:38.924Z,7.4
2016-11-19T09:18:38.883Z,7.39
2016-11-19T09:19:39.146Z,7.35
2016-11-19T09:20:39.110Z,7.35
2016-11-19T09:21:39.081Z,7.34
2016-11-19T09:22:39.029Z,7.32
2016-11-19T09:23:38.987Z,7.34
2016-11-19T09:24:38.950Z,7.31
2016-11-19T09:25:38.909Z,7.23
2016-11-19T09:26:38.572Z,7.21
2016-11-19T09:27:38.837Z,7.09
2016-11-19T09:28:38.793Z,7.07
2016-11-19T09:29:38.761Z,6.99
2016-11-19T09:30:38.418Z,7.05
2016-11-19T09:31:38.673Z,7.06
2016-11-19T09:32:38.634Z,7.06
2016-11-19T09:33:38.593Z,6.98
2016-11-19T09:34:38.555Z,7.06
2016-11-19T09:35:38.519Z,7.09
2016-11-19T09:36:38.509Z,7.05
2016-11-19T09:37:38.444Z,6.99
2016-11-19T09:38:38.396Z,6.95
2016-11-19T09:39:38.371Z,6.89
2016-11-19T09:40:38.318Z,6.95
2016-11-19T09:41:38.282Z,6.99
2016-11-19T09:42:38.237Z,6.99
2016-11-19T09:43:38.203Z,6.98
2016-11-19T09:44:38.163Z,6.88
2016-11-19T09:45:37.817Z,6.98
2016-11-19T09:46:38.094Z,6.97
2016-11-19T09:47:38.046Z,6.85
2016-11-19T09:48:38.040Z,6.94
2016-11-19T09:49:37.962Z,6.91
2016-11-19T09:50:37.932Z,7.02
2016-11-19T09:51:37.884Z,6.98
2016-11-19T09:52:37.849Z,7.1
2016-11-19T09:53:37.805Z,7.02
2016-11-19T09:54:37.768Z,7.02
2016-11-19T09:55:37.724Z,7.1
2016-11-19T09:56:37.685Z,7.13
2016-11-19T09:57:37.345Z,7.06
2016-11-19T09:58:37.005Z,7.07
2016-11-19T09:59:37.566Z,7.07
2016-11-19T10:00:37.530Z,7.06
2016-11-19T10:01:37.486Z,7.07
2016-11-19T10:02:37.454Z,6.99
2016-11-19T10:03:37.108Z,6.99
2016-11-19T10:04:37.397Z,6.99
2016-11-19T10:05:37.329Z,7.03
2016-11-19T10:06:37.291Z,7.1
2016-11-19T10:07:36.966Z,7.09
2016-11-19T10:08:37.213Z,7.06
2016-11-19T10:09:37.175Z,7.07
2016-11-19T10:10:36.839Z,7.07
2016-11-19T10:11:36.804Z,7.03
2016-11-19T10:12:36.752Z,7.05
2016-11-19T10:13:37.015Z,7.05
2016-11-19T10:14:36.370Z,7.1
2016-11-19T10:15:36.941Z,7.05
2016-11-19T10:16:36.603Z,7.1
2016-11-19T10:17:36.874Z,7.02
2016-11-19T10:18:36.820Z,7.09
2016-11-19T10:19:36.786Z,7.05
2016-11-19T10:20:36.746Z,7.06
2016-11-19T10:21:36.701Z,6.99
2016-11-19T10:22:36.791Z,7.03
2016-11-19T10:23:36.623Z,7.02
2016-11-19T10:24:36.280Z,7.05
2016-11-19T10:25:36.541Z,7.07
2016-11-19T10:26:36.200Z,6.99
2016-11-19T10:27:36.169Z,6.99
2016-11-19T10:28:36.421Z,6.98
2016-11-19T10:29:36.388Z,6.97
2016-11-19T10:30:36.347Z,6.98
2016-11-19T10:31:36.341Z,6.98
2016-11-19T10:32:36.264Z,6.92
2016-11-19T10:33:36.232Z,6.87
2016-11-19T10:34:35.885Z,6.92
2016-11-19T10:35:36.147Z,6.87
2016-11-19T10:36:36.115Z,6.79
2016-11-19T10:37:36.068Z,6.91
2016-11-19T10:38:36.034Z,6.85
2016-11-19T10:39:35.999Z,6.85
2016-11-19T10:40:35.949Z,6.88
2016-11-19T10:41:35.606Z,6.85
2016-11-19T10:42:35.870Z,6.91
2016-11-19T10:43:35.827Z,6.88
2016-11-19T10:44:35.792Z,6.88
2016-11-19T10:45:35.751Z,6.85
2016-11-19T10:46:35.720Z,6.94
2016-11-19T10:47:35.384Z,7.02
2016-11-19T10:48:35.635Z,7.02
2016-11-19T10:49:35.596Z,7.02
2016-11-19T10:50:35.255Z,6.92
2016-11-19T10:51:35.520Z,6.94
2016-11-19T10:52:35.177Z,6.95
2016-11-19T10:53:35.465Z,6.91
2016-11-19T10:54:35.395Z,6.89
2016-11-19T10:55:35.056Z,6.87
2016-11-19T10:56:35.320Z,6.85
2016-11-19T10:57:35.276Z,6.8
2016-11-19T10:58:35.237Z,6.88
2016-11-19T10:59:35.202Z,6.84
2016-11-19T11:00:35.158Z,6.76
2016-11-19T11:01:35.117Z,6.67
2016-11-19T11:02:35.077Z,6.73
2016-11-19T11:03:34.735Z,6.73
2016-11-19T11:04:34.999Z,6.74
2016-11-19T11:05:34.962Z,6.79
2016-11-19T11:06:34.922Z,6.77
2016-11-19T11:07:34.892Z,6.67
2016-11-19T11:08:34.538Z,6.71
2016-11-19T11:09:34.808Z,6.7
2016-11-19T11:10:34.760Z,6.67
2016-11-19T11:11:34.426Z,6.69
2016-11-19T11:12:34.685Z,6.62
2016-11-19T11:13:34.641Z,6.61
2016-11-19T11:14:34.301Z,6.51
2016-11-19T11:15:34.562Z,6.54
2016-11-19T11:16:34.525Z,6.51
2016-11-19T11:17:34.492Z,6.55
2016-11-19T11:18:34.448Z,6.54
2016-11-19T11:19:34.102Z,6.56
2016-11-19T11:20:34.059Z,6.56
2016-11-19T11:21:34.327Z,6.51
2016-11-19T11:22:34.332Z,6.55
2016-11-19T11:23:34.244Z,6.55
2016-11-19T11:24:34.212Z,6.58
2016-11-19T11:25:34.161Z,6.56
2016-11-19T11:26:34.129Z,6.58
2016-11-19T11:27:34.083Z,6.59
2016-11-19T11:28:34.046Z,6.61
2016-11-19T11:29:33.701Z,6.61
2016-11-19T11:30:33.966Z,6.58
2016-11-19T11:31:33.924Z,6.55
2016-11-19T11:32:33.887Z,6.64
2016-11-19T11:33:33.864Z,6.61
2016-11-19T11:34:33.808Z,6.69
2016-11-19T11:35:33.464Z,6.69
2016-11-19T11:36:33.728Z,6.71
2016-11-19T11:37:33.688Z,6.64
2016-11-19T11:38:33.344Z,6.74
2016-11-19T11:39:33.615Z,6.76
2016-11-19T11:40:33.568Z,6.73
2016-11-19T11:41:33.527Z,6.77
2016-11-19T11:42:33.515Z,6.81
2016-11-19T11:43:33.149Z,6.91
2016-11-19T11:44:33.410Z,6.92
2016-11-19T11:45:33.374Z,6.89
2016-11-19T11:46:33.024Z,6.97
2016-11-19T11:47:33.298Z,7.03
2016-11-19T11:48:33.250Z,6.99
2016-11-19T11:49:33.211Z,6.99
2016-11-19T11:50:33.175Z,6.98
2016-11-19T11:51:33.143Z,7.03
2016-11-19T11:52:33.096Z,7.02
2016-11-19T11:53:32.753Z,6.94
2016-11-19T11:54:32.713Z,6.94
2016-11-19T11:55:32.976Z,7.03
2016-11-19T11:56:32.946Z,7.1
2016-11-19T11:57:32.902Z,7.03
2016-11-19T11:58:32.559Z,7.09
2016-11-19T11:59:32.838Z,7.03
2016-11-19T12:00:32.785Z,7.07
2016-11-19T12:01:32.747Z,7.16
2016-11-19T12:02:32.701Z,7.12
2016-11-19T12:03:32.658Z,7.1
2016-11-19T12:04:32.317Z,7.12
2016-11-19T12:05:32.281Z,7.12
2016-11-19T12:06:32.544Z,7.16
2016-11-19T12:07:32.500Z,7.12
2016-11-19T12:08:32.459Z,7.16
2016-11-19T12:09:32.423Z,7.17
2016-11-19T12:10:32.110Z,7.06
2016-11-19T12:11:32.349Z,7.1
2016-11-19T12:12:32.005Z,7.07
2016-11-19T12:13:32.263Z,7.03
2016-11-19T12:14:31.926Z,6.99
2016-11-19T12:15:32.188Z,7.07
2016-11-19T12:16:32.145Z,7.03
2016-11-19T12:17:31.809Z,6.97
2016-11-19T12:18:32.067Z,6.98
2016-11-19T12:19:32.032Z,6.87
2016-11-19T12:20:31.988Z,6.98
2016-11-19T12:21:31.956Z,6.88
2016-11-19T12:22:31.924Z,6.92
2016-11-19T12:23:31.576Z,6.95
2016-11-19T12:24:31.529Z,6.88
2016-11-19T12:25:31.796Z,6.92
2016-11-19T12:26:31.768Z,6.92
2016-11-19T12:27:31.413Z,6.89
2016-11-19T12:28:31.672Z,6.89
2016-11-19T12:29:31.335Z,6.99
2016-11-19T12:30:31.600Z,7.02
2016-11-19T12:31:31.565Z,6.87
2016-11-19T12:32:31.218Z,6.99
2016-11-19T12:33:31.480Z,6.92
2016-11-19T12:34:31.440Z,6.99
2016-11-19T12:35:31.399Z,6.91
2016-11-19T12:36:31.361Z,6.92
2016-11-19T12:37:31.322Z,6.88
2016-11-19T12:38:31.282Z,6.91
2016-11-19T12:39:31.242Z,6.89
2016-11-19T12:40:31.205Z,6.89
2016-11-19T12:41:31.169Z,6.94
2016-11-19T12:42:30.823Z,6.88
2016-11-19T12:43:30.780Z,6.98
2016-11-19T12:44:31.044Z,6.92
2016-11-19T12:45:30.702Z,6.97
2016-11-19T12:46:30.977Z,6.98
2016-11-19T12:47:30.926Z,6.97
2016-11-19T12:48:30.888Z,6.98
2016-11-19T12:49:30.850Z,6.98
2016-11-19T12:50:30.505Z,6.98
2016-11-19T12:51:30.768Z,6.99
2016-11-19T12:52:30.727Z,7.03
2016-11-19T12:53:30.695Z,7.07
2016-11-19T12:54:30.648Z,6.98
2016-11-19T12:55:30.611Z,7.02
2016-11-19T12:56:29.968Z,7.02
2016-11-19T12:57:30.531Z,7.09
2016-11-19T12:58:30.492Z,7.06
2016-11-19T12:59:30.449Z,7.05
2016-11-19T13:00:30.416Z,7.09
2016-11-19T13:01:30.381Z,7.07
2016-11-19T13:02:30.335Z,7.09
2016-11-19T13:03:30.296Z,7.05
2016-11-19T13:04:29.957Z,6.98
2016-11-19T13:05:30.215Z,7.05
2016-11-19T13:06:30.176Z,7.07
2016-11-19T13:07:30.138Z,7.03
2016-11-19T13:08:30.106Z,6.98
2016-11-19T13:09:30.055Z,6.99
2016-11-19T13:10:30.023Z,7.13
2016-11-19T13:11:29.985Z,7.07
2016-11-19T13:12:29.938Z,6.97
2016-11-19T13:13:30.234Z,7.03
2016-11-19T13:14:29.560Z,7.06
2016-11-19T13:15:29.818Z,7.03
2016-11-19T13:16:29.783Z,7.07
2016-11-19T13:17:29.442Z,7.05
2016-11-19T13:18:30.066Z,7.07
2016-11-19T13:19:29.664Z,7.06
2016-11-19T13:20:29.626Z,7.16
2016-11-19T13:21:29.585Z,7.13